X  Chiuso Dati meteorologici dell'aviazione (METAR)     KDNN Dalton Municipal Airport
Temperatura
30°C Temperatura
23°C Punto di rugiada
66% Umidità



Vento
3 MPH
5 KM/O
1 M/S
3 KTS



Calmo
N
Condizioni attuali

Parzialmente nuvoloso Parzialmente nuvoloso
Pressione 1015.58 (hPa) - 29.99 (inHg)
Visibilità 10 (miglio) - 16.1 (km)
Aeroporto
Codice-Aeroporto KDNN

Posizione: Dalton Municipal Airport
Distanza: 34 (mi)

Metar:
KDNN 211955Z AUTO VRB03KT 10SM FEW035 30/23 A2999 RMK AO2 T02970232 $

Ore: 07-21-2024 15:55 EDT